createdAt,value
2022-09-20T00:01:27.150Z,27.38
2022-09-20T00:03:57.817Z,25.88
2022-09-20T00:06:28.075Z,23.67
2022-09-20T00:08:57.714Z,24.15
2022-09-20T00:11:29.554Z,23.17
2022-09-20T00:13:59.859Z,24.38
2022-09-20T00:16:31.279Z,28.08
2022-09-20T00:19:03.866Z,23.23
2022-09-20T00:21:33.652Z,26.33
2022-09-20T00:24:02.247Z,25.67
2022-09-20T00:26:31.807Z,29.00
2022-09-20T00:29:00.353Z,29.67
2022-09-20T00:31:28.642Z,30.15
2022-09-20T00:34:14.937Z,31.70
2022-09-20T00:36:43.939Z,29.52
2022-09-20T00:39:13.711Z,29.48
2022-09-20T00:41:43.304Z,29.73
2022-09-20T00:44:53.946Z,33.85
2022-09-20T00:47:27.472Z,33.78
2022-09-20T00:50:01.090Z,42.28
2022-09-20T00:52:30.506Z,44.70
2022-09-20T00:55:00.058Z,32.17
2022-09-20T00:57:35.404Z,39.92
2022-09-20T01:00:08.156Z,36.03
2022-09-20T01:02:39.072Z,31.55
2022-09-20T01:05:10.452Z,33.75
2022-09-20T01:07:39.441Z,33.55
2022-09-20T01:10:08.254Z,37.75
2022-09-20T01:12:40.695Z,36.35
2022-09-20T01:15:10.855Z,34.50
2022-09-20T01:17:43.031Z,32.13
2022-09-20T01:20:16.901Z,41.90
2022-09-20T01:23:05.328Z,35.67
2022-09-20T01:26:08.315Z,36.85
2022-09-20T01:28:38.707Z,34.80
2022-09-20T01:31:13.076Z,34.53
2022-09-20T01:33:46.909Z,35.10
2022-09-20T01:36:20.161Z,33.55
2022-09-20T01:38:57.629Z,32.92
2022-09-20T01:41:32.078Z,35.92
2022-09-20T01:44:11.716Z,32.08
2022-09-20T01:46:41.606Z,43.33
2022-09-20T01:49:26.772Z,38.00
2022-09-20T01:52:42.899Z,37.03
2022-09-20T01:55:43.331Z,31.98
2022-09-20T01:58:38.055Z,35.03
2022-09-20T02:01:35.469Z,35.88
2022-09-20T02:04:40.474Z,34.88
2022-09-20T02:07:49.239Z,31.17
2022-09-20T02:10:36.315Z,37.80
2022-09-20T02:13:08.034Z,39.58
2022-09-20T02:15:51.202Z,37.50
2022-09-20T02:18:39.178Z,43.78
2022-09-20T02:21:18.988Z,41.40
2022-09-20T02:24:00.689Z,42.85
2022-09-20T02:26:42.118Z,37.53
2022-09-20T02:29:25.639Z,43.88
2022-09-20T02:32:24.161Z,39.13
2022-09-20T02:35:12.322Z,41.92
2022-09-20T02:37:58.464Z,44.42
2022-09-20T02:40:51.361Z,43.97
2022-09-20T02:43:27.021Z,39.05
2022-09-20T02:46:03.015Z,48.75
2022-09-20T02:48:39.310Z,35.85
2022-09-20T02:51:17.761Z,39.10
2022-09-20T02:53:56.459Z,40.40
2022-09-20T02:56:35.759Z,48.97
2022-09-20T02:59:14.098Z,41.67
2022-09-20T03:01:50.185Z,39.75
2022-09-20T03:04:35.928Z,46.88
2022-09-20T03:07:13.776Z,40.10
2022-09-20T03:09:49.325Z,39.17
2022-09-20T03:12:28.928Z,43.65
2022-09-20T03:15:11.403Z,36.95
2022-09-20T03:17:49.845Z,38.78
2022-09-20T03:20:34.027Z,43.47
2022-09-20T03:23:14.921Z,36.75
2022-09-20T03:25:56.134Z,40.65
2022-09-20T03:28:36.981Z,37.22
2022-09-20T03:31:20.703Z,38.67
2022-09-20T03:33:59.577Z,40.83
2022-09-20T03:36:42.953Z,39.23
2022-09-20T03:39:44.380Z,38.45
2022-09-20T03:42:17.611Z,37.20
2022-09-20T03:45:13.021Z,48.70
2022-09-20T03:48:06.889Z,41.13
2022-09-20T03:50:50.519Z,42.53
2022-09-20T03:54:09.698Z,34.30
2022-09-20T03:57:06.691Z,32.97
2022-09-20T04:00:06.299Z,35.95
2022-09-20T04:03:00.732Z,30.60
2022-09-20T04:05:38.781Z,31.85
2022-09-20T04:08:18.895Z,32.40
2022-09-20T04:10:54.653Z,32.45
2022-09-20T04:13:45.212Z,28.58
2022-09-20T04:16:24.884Z,25.98
2022-09-20T04:18:57.651Z,25.98
2022-09-20T04:21:32.951Z,25.23
2022-09-20T04:24:06.327Z,26.60
2022-09-20T04:26:40.692Z,23.70
2022-09-20T04:29:26.454Z,29.58
2022-09-20T04:32:01.392Z,28.10
2022-09-20T04:34:49.978Z,33.95
2022-09-20T04:37:27.671Z,24.42
2022-09-20T04:40:04.546Z,24.58
2022-09-20T04:43:11.452Z,24.38
2022-09-20T04:46:10.474Z,28.85
2022-09-20T04:48:56.967Z,26.90
2022-09-20T04:51:54.394Z,24.33
2022-09-20T04:54:52.489Z,24.63
2022-09-20T04:57:56.684Z,27.45
2022-09-20T05:00:27.378Z,27.83
2022-09-20T05:03:18.580Z,23.20
2022-09-20T05:06:08.499Z,30.08
2022-09-20T05:09:10.017Z,27.58
2022-09-20T05:11:57.125Z,25.45
2022-09-20T05:15:11.146Z,30.60
2022-09-20T05:18:05.768Z,26.58
2022-09-20T05:21:13.436Z,29.05
2022-09-20T05:24:08.389Z,33.35
2022-09-20T05:26:51.959Z,33.95
2022-09-20T05:29:26.505Z,32.00
2022-09-20T05:32:03.250Z,30.85
2022-09-20T05:34:42.473Z,32.05
2022-09-20T05:37:21.675Z,28.92
2022-09-20T05:40:00.372Z,25.73
2022-09-20T05:42:39.843Z,28.02
2022-09-20T05:45:23.588Z,29.17
2022-09-20T05:47:58.137Z,28.30
2022-09-20T05:50:41.135Z,31.40
2022-09-20T05:53:36.087Z,29.92
2022-09-20T05:56:12.887Z,32.97
2022-09-20T05:59:02.608Z,33.72
2022-09-20T06:01:35.324Z,29.10
2022-09-20T06:04:13.978Z,31.80
2022-09-20T06:06:53.436Z,29.17
2022-09-20T06:09:40.668Z,26.80
2022-09-20T06:12:21.764Z,34.22
2022-09-20T06:15:00.219Z,26.35
2022-09-20T06:17:34.211Z,28.95
2022-09-20T06:20:14.823Z,29.70
2022-09-20T06:22:47.245Z,33.17
2022-09-20T06:25:21.831Z,34.60
2022-09-20T06:27:54.877Z,31.08
2022-09-20T06:30:27.602Z,36.47
2022-09-20T06:32:58.184Z,30.25
2022-09-20T06:35:33.242Z,29.60
2022-09-20T06:38:35.161Z,26.73
2022-09-20T06:41:22.902Z,29.13
2022-09-20T06:43:51.127Z,22.80
2022-09-20T06:46:19.372Z,22.42
2022-09-20T06:48:50.373Z,28.90
2022-09-20T06:51:18.695Z,29.95
2022-09-20T06:53:48.573Z,22.45
2022-09-20T06:56:20.317Z,19.52
2022-09-20T06:58:48.715Z,16.05
2022-09-20T07:01:26.571Z,21.38
2022-09-20T07:03:57.713Z,13.98
2022-09-20T07:06:27.321Z,14.30
2022-09-20T07:08:57.025Z,21.33
2022-09-20T07:11:25.618Z,20.95
2022-09-20T07:13:56.382Z,23.30
2022-09-20T07:16:24.843Z,15.77
2022-09-20T07:18:53.263Z,16.65
2022-09-20T07:21:22.714Z,14.18
2022-09-20T07:23:51.320Z,15.70
2022-09-20T07:26:23.345Z,13.73
2022-09-20T07:28:52.327Z,18.05
2022-09-20T07:31:22.882Z,12.95
2022-09-20T07:33:51.538Z,11.18
2022-09-20T07:36:21.370Z,14.23
2022-09-20T07:38:50.398Z,8.02
2022-09-20T07:41:22.987Z,9.90
2022-09-20T07:43:52.301Z,12.20
2022-09-20T07:46:22.320Z,22.95
2022-09-20T07:48:50.658Z,19.02
2022-09-20T07:51:18.887Z,14.52
2022-09-20T07:53:47.094Z,8.93
2022-09-20T07:56:18.403Z,10.23
2022-09-20T07:58:52.265Z,8.30
2022-09-20T08:01:22.213Z,11.10
2022-09-20T08:03:51.890Z,4.93
2022-09-20T08:06:21.446Z,6.57
2022-09-20T08:08:51.703Z,8.90
2022-09-20T08:11:22.582Z,6.80
2022-09-20T08:14:09.547Z,3.83
2022-09-20T08:16:40.416Z,5.78
2022-09-20T08:19:08.770Z,7.88
2022-09-20T08:21:39.083Z,5.32
2022-09-20T08:24:07.737Z,6.93
2022-09-20T08:26:37.163Z,19.20
2022-09-20T08:29:07.237Z,5.00
2022-09-20T08:31:38.299Z,3.53
2022-09-20T08:34:09.028Z,3.55
2022-09-20T08:36:41.380Z,3.10
2022-09-20T08:42:03.264Z,2.20
2022-09-20T08:44:36.360Z,1.63
2022-09-20T08:47:13.924Z,4.88
2022-09-20T08:49:46.121Z,8.15
2022-09-20T08:52:21.098Z,2.58
2022-09-20T08:54:49.314Z,2.90
2022-09-20T08:57:19.652Z,3.70
2022-09-20T08:59:50.453Z,5.82
2022-09-20T09:02:20.702Z,7.75
2022-09-20T09:04:53.870Z,3.78
2022-09-20T09:07:23.700Z,2.00
2022-09-20T09:09:55.190Z,4.30
2022-09-20T09:12:25.725Z,4.32
2022-09-20T09:15:00.440Z,4.40
2022-09-20T09:17:30.074Z,2.40
2022-09-20T09:19:59.936Z,3.15
2022-09-20T09:22:35.289Z,3.08
2022-09-20T09:25:32.281Z,2.92
2022-09-20T09:28:02.637Z,2.00
2022-09-20T09:30:35.366Z,3.00
2022-09-20T09:33:26.627Z,4.88
2022-09-20T09:35:59.007Z,2.05
2022-09-20T09:38:30.721Z,1.83
2022-09-20T09:41:01.156Z,1.48
2022-09-20T09:43:32.031Z,5.40
2022-09-20T09:46:21.454Z,1.88
2022-09-20T09:49:06.716Z,0.98
2022-09-20T09:51:37.722Z,2.22
2022-09-20T09:54:06.636Z,1.60
2022-09-20T09:56:47.273Z,2.28
2022-09-20T09:59:40.335Z,3.80
2022-09-20T10:02:30.471Z,3.13
2022-09-20T10:05:03.163Z,4.38
2022-09-20T10:07:39.761Z,1.25
2022-09-20T10:10:18.317Z,2.35
2022-09-20T10:12:55.371Z,0.88
2022-09-20T10:15:34.230Z,2.92
2022-09-20T10:18:21.958Z,3.67
2022-09-20T10:21:00.366Z,1.85
2022-09-20T10:24:02.445Z,1.42
2022-09-20T10:27:10.538Z,2.00
2022-09-20T10:29:53.101Z,1.60
2022-09-20T10:32:31.607Z,2.10
2022-09-20T10:35:22.633Z,2.40
2022-09-20T10:38:12.746Z,1.58
2022-09-20T10:41:10.906Z,2.50
2022-09-20T10:44:05.111Z,4.25
2022-09-20T10:46:51.604Z,2.63
2022-09-20T10:49:29.179Z,0.20
2022-09-20T10:52:15.239Z,0.43
2022-09-20T10:54:57.518Z,3.22
2022-09-20T10:57:54.667Z,2.40
2022-09-20T11:00:24.693Z,3.28
2022-09-20T11:03:09.728Z,1.23
2022-09-20T11:05:47.697Z,4.50
2022-09-20T11:08:22.887Z,2.38
2022-09-20T11:10:55.300Z,0.73
2022-09-20T11:13:31.544Z,4.07
2022-09-20T11:16:06.127Z,4.03
2022-09-20T11:18:40.752Z,0.55
2022-09-20T11:21:16.649Z,1.38
2022-09-20T11:23:55.941Z,2.38
2022-09-20T11:29:40.012Z,1.17
2022-09-20T11:32:16.503Z,1.02
2022-09-20T11:34:53.546Z,2.55
2022-09-20T11:37:23.963Z,1.42
2022-09-20T11:39:56.163Z,1.40
2022-09-20T11:42:29.659Z,0.95
2022-09-20T11:44:58.258Z,1.20
2022-09-20T11:47:53.930Z,1.45
2022-09-20T11:50:48.470Z,1.85
2022-09-20T11:53:41.805Z,2.70
2022-09-20T11:56:17.857Z,1.05
2022-09-20T11:58:48.831Z,3.30
2022-09-20T12:01:28.201Z,4.50
2022-09-20T12:04:20.978Z,1.45
2022-09-20T12:06:57.812Z,4.00
2022-09-20T12:09:29.640Z,2.03
2022-09-20T12:12:00.680Z,1.42
2022-09-20T12:14:32.405Z,1.90
2022-09-20T12:17:00.765Z,2.53
2022-09-20T12:19:40.231Z,3.53
2022-09-20T12:22:29.526Z,1.95
2022-09-20T12:25:35.072Z,1.67
2022-09-20T12:28:05.373Z,1.90
2022-09-20T12:30:33.929Z,2.17
2022-09-20T12:33:04.142Z,2.65
2022-09-20T12:36:01.287Z,2.78
2022-09-20T12:38:41.469Z,2.13
2022-09-20T12:41:13.439Z,1.48
2022-09-20T12:43:56.294Z,2.28
2022-09-20T12:46:43.770Z,1.00
2022-09-20T12:49:50.559Z,1.02
2022-09-20T12:53:00.692Z,2.05
2022-09-20T12:55:33.851Z,3.90
2022-09-20T12:58:05.812Z,0.80
2022-09-20T13:00:40.821Z,3.05
2022-09-20T13:03:23.821Z,0.93
2022-09-20T13:06:12.893Z,1.85
2022-09-20T13:08:44.322Z,1.30
2022-09-20T13:11:17.620Z,0.52
2022-09-20T13:13:49.695Z,1.10
2022-09-20T13:16:23.854Z,0.68
2022-09-20T13:18:59.120Z,3.65
2022-09-20T13:21:27.968Z,2.05
2022-09-20T13:23:56.401Z,3.30
2022-09-20T13:26:30.134Z,1.10
2022-09-20T13:29:00.273Z,3.42
2022-09-20T13:31:33.721Z,1.10
2022-09-20T13:34:24.764Z,7.15
2022-09-20T13:36:56.638Z,0.88
2022-09-20T13:39:35.205Z,1.38
2022-09-20T13:42:08.380Z,1.30
2022-09-20T13:44:37.357Z,0.52
2022-09-20T13:47:23.707Z,2.70
2022-09-20T13:49:52.203Z,1.27
2022-09-20T13:52:31.549Z,1.50
2022-09-20T13:54:59.761Z,2.30
2022-09-20T13:57:29.932Z,1.98
2022-09-20T13:59:59.678Z,0.75
2022-09-20T14:02:32.920Z,0.60
2022-09-20T14:05:04.725Z,1.95
2022-09-20T14:07:36.459Z,1.17
2022-09-20T14:10:05.987Z,1.85
2022-09-20T14:12:34.782Z,1.85
2022-09-20T14:15:08.618Z,1.05
2022-09-20T14:17:38.497Z,0.20
2022-09-20T14:20:08.550Z,1.02
2022-09-20T14:22:36.935Z,1.75
2022-09-20T14:25:21.190Z,1.45
2022-09-20T14:27:49.482Z,2.60
2022-09-20T14:30:31.913Z,1.35
2022-09-20T14:33:01.859Z,2.10
2022-09-20T14:35:31.015Z,2.53
2022-09-20T14:38:02.694Z,1.85
2022-09-20T14:40:33.461Z,3.20
2022-09-20T14:43:03.516Z,3.08
2022-09-20T14:45:34.315Z,2.50
2022-09-20T14:48:10.729Z,3.40
2022-09-20T14:50:42.263Z,2.40
2022-09-20T14:53:31.856Z,1.55
2022-09-20T14:56:08.889Z,5.97
2022-09-20T14:59:18.830Z,0.47
2022-09-20T15:01:58.384Z,1.80
2022-09-20T15:04:28.847Z,0.77
2022-09-20T15:06:57.937Z,3.25
2022-09-20T15:09:26.177Z,1.80
2022-09-20T15:12:02.358Z,2.30
2022-09-20T15:14:35.063Z,2.60
2022-09-20T15:17:06.251Z,2.63
2022-09-20T15:19:35.855Z,3.90
2022-09-20T15:22:04.116Z,0.85
2022-09-20T15:24:32.435Z,5.13
2022-09-20T15:27:00.726Z,2.17
2022-09-20T15:29:29.243Z,1.30
2022-09-20T15:31:57.777Z,4.15
2022-09-20T15:34:26.286Z,1.40
2022-09-20T15:36:55.871Z,1.65
2022-09-20T15:39:24.682Z,0.20
2022-09-20T15:41:53.290Z,4.53
2022-09-20T15:44:22.077Z,2.67
2022-09-20T15:46:52.517Z,0.47
2022-09-20T15:49:20.838Z,1.60
2022-09-20T15:51:49.376Z,1.90
2022-09-20T15:54:19.642Z,0.57
2022-09-20T15:56:47.995Z,2.55
2022-09-20T15:59:17.315Z,4.82
2022-09-20T16:01:48.146Z,1.42
2022-09-20T16:04:19.526Z,2.20
2022-09-20T16:06:49.882Z,3.00
2022-09-20T16:09:19.920Z,1.27
2022-09-20T16:11:48.606Z,3.78
2022-09-20T16:14:16.933Z,3.40
2022-09-20T16:16:45.251Z,3.38
2022-09-20T16:19:20.161Z,1.42
2022-09-20T16:21:55.145Z,2.50
2022-09-20T16:24:28.103Z,1.55
2022-09-20T16:26:56.577Z,1.35
2022-09-20T16:29:25.950Z,4.82
2022-09-20T16:31:55.781Z,3.28
2022-09-20T16:34:30.237Z,0.80
2022-09-20T16:37:00.368Z,1.20
2022-09-20T16:39:31.212Z,1.38
2022-09-20T16:42:04.905Z,3.28
2022-09-20T16:44:33.835Z,0.15
2022-09-20T16:47:02.294Z,3.00
2022-09-20T16:49:31.592Z,2.38
2022-09-20T16:51:59.799Z,2.63
2022-09-20T16:54:32.132Z,6.20
2022-09-20T16:57:00.743Z,1.15
2022-09-20T16:59:29.052Z,1.15
2022-09-20T17:01:57.264Z,1.00
2022-09-20T17:04:26.572Z,0.75
2022-09-20T17:06:55.657Z,4.60
2022-09-20T17:09:23.920Z,4.47
2022-09-20T17:11:53.822Z,2.28
2022-09-20T17:14:22.239Z,5.22
2022-09-20T17:16:51.077Z,1.40
2022-09-20T17:19:20.710Z,2.22
2022-09-20T17:21:50.795Z,1.63
2022-09-20T17:24:20.844Z,1.85
2022-09-20T17:26:50.781Z,2.00
2022-09-20T17:29:21.693Z,3.10
2022-09-20T17:31:55.749Z,3.15
2022-09-20T17:34:26.460Z,2.35
2022-09-20T17:36:55.474Z,1.98
2022-09-20T17:39:24.326Z,3.33
2022-09-20T17:41:52.827Z,5.20
2022-09-20T17:44:22.661Z,1.85
2022-09-20T17:46:54.090Z,9.50
2022-09-20T17:49:23.936Z,1.50
2022-09-20T17:51:53.356Z,2.30
2022-09-20T17:54:22.347Z,1.80
2022-09-20T17:56:53.533Z,4.35
2022-09-20T17:59:23.292Z,2.92
2022-09-20T18:01:52.486Z,2.50
2022-09-20T18:04:24.267Z,0.98
2022-09-20T18:06:54.602Z,2.60
2022-09-20T18:09:24.947Z,3.28
2022-09-20T18:11:54.687Z,6.50
2022-09-20T18:14:28.503Z,5.35
2022-09-20T18:17:00.904Z,7.25
2022-09-20T18:19:32.996Z,5.03
2022-09-20T18:22:02.281Z,3.35
2022-09-20T18:24:31.292Z,1.38
2022-09-20T18:27:00.702Z,2.05
2022-09-20T18:29:36.775Z,7.13
2022-09-20T18:32:05.480Z,8.93
2022-09-20T18:34:34.255Z,4.10
2022-09-20T18:37:03.757Z,4.47
2022-09-20T18:39:34.877Z,7.28
2022-09-20T18:42:04.142Z,2.28
2022-09-20T18:44:34.039Z,2.65
2022-09-20T18:47:03.740Z,4.80
2022-09-20T18:49:32.598Z,8.85
2022-09-20T18:52:00.966Z,6.18
2022-09-20T18:54:30.519Z,12.15
2022-09-20T18:56:59.612Z,4.32
2022-09-20T18:59:29.187Z,4.90
2022-09-20T19:02:22.429Z,4.47
2022-09-20T19:05:14.831Z,4.47
2022-09-20T19:07:52.664Z,3.40
2022-09-20T19:10:28.036Z,6.78
2022-09-20T19:13:05.499Z,11.75
2022-09-20T19:15:53.711Z,7.50
2022-09-20T19:18:44.416Z,9.45
2022-09-20T19:21:22.775Z,5.82
2022-09-20T19:24:03.895Z,4.82
2022-09-20T19:26:39.989Z,10.60
2022-09-20T19:29:18.111Z,10.00
2022-09-20T19:31:48.995Z,8.73
2022-09-20T19:34:22.110Z,7.25
2022-09-20T19:37:03.549Z,12.38
2022-09-20T19:39:52.443Z,6.60
2022-09-20T19:42:30.074Z,10.05
2022-09-20T19:45:09.945Z,10.18
2022-09-20T19:47:51.090Z,9.85
2022-09-20T19:50:33.229Z,12.00
2022-09-20T19:53:03.907Z,12.13
2022-09-20T19:55:33.260Z,6.38
2022-09-20T19:58:02.139Z,8.48
2022-09-20T20:00:31.413Z,9.18
2022-09-20T20:03:00.295Z,5.68
2022-09-20T20:05:30.577Z,10.82
2022-09-20T20:08:17.503Z,11.38
2022-09-20T20:10:59.070Z,6.97
2022-09-20T20:13:52.115Z,10.20
2022-09-20T20:16:28.681Z,12.90
2022-09-20T20:19:19.555Z,10.38
2022-09-20T20:21:56.227Z,11.20
2022-09-20T20:24:30.959Z,14.93
2022-09-20T20:26:59.147Z,11.73
2022-09-20T20:29:27.393Z,13.10
2022-09-20T20:31:55.761Z,17.55
2022-09-20T20:34:26.433Z,14.05
2022-09-20T20:37:00.922Z,12.70
2022-09-20T20:39:31.598Z,14.98
2022-09-20T20:42:02.472Z,15.05
2022-09-20T20:44:31.129Z,16.40
2022-09-20T20:46:59.347Z,14.98
2022-09-20T20:49:27.728Z,22.88
2022-09-20T20:51:57.507Z,23.88
2022-09-20T20:54:25.707Z,23.30
2022-09-20T20:56:53.947Z,22.67
2022-09-20T20:59:22.277Z,19.75
2022-09-20T21:01:50.475Z,18.58
2022-09-20T21:04:18.789Z,18.65
2022-09-20T21:06:47.422Z,20.55
2022-09-20T21:09:17.096Z,18.95
2022-09-20T21:11:48.396Z,22.92
2022-09-20T21:14:16.844Z,21.95
2022-09-20T21:16:45.564Z,28.67
2022-09-20T21:19:15.843Z,30.50
2022-09-20T21:21:46.136Z,30.95
2022-09-20T21:24:18.000Z,36.08
2022-09-20T21:26:46.946Z,27.95
2022-09-20T21:29:16.156Z,37.03
2022-09-20T21:31:46.791Z,36.08
2022-09-20T21:34:16.668Z,37.83
2022-09-20T21:36:45.357Z,37.67
2022-09-20T21:39:13.752Z,31.90
2022-09-20T21:41:43.417Z,42.20
2022-09-20T21:44:12.199Z,41.47
2022-09-20T21:46:41.688Z,44.30
2022-09-20T21:49:12.073Z,36.35
2022-09-20T21:51:42.064Z,48.78
2022-09-20T21:54:11.070Z,49.10
2022-09-20T21:56:41.224Z,45.53
2022-09-20T21:59:10.910Z,59.58
2022-09-20T22:01:41.149Z,54.42
2022-09-20T22:04:11.115Z,44.22
2022-09-20T22:06:41.453Z,45.60
2022-09-20T22:09:10.985Z,47.83
2022-09-20T22:11:40.688Z,40.65
2022-09-20T22:14:11.217Z,41.10
2022-09-20T22:16:41.222Z,46.00
2022-09-20T22:19:11.288Z,44.08
2022-09-20T22:21:41.885Z,38.40
2022-09-20T22:24:12.227Z,39.10
2022-09-20T22:26:43.691Z,39.63
2022-09-20T22:29:14.026Z,41.08
2022-09-20T22:31:45.499Z,42.70
2022-09-20T22:34:17.112Z,40.95
2022-09-20T22:36:46.195Z,36.80
2022-09-20T22:39:15.014Z,42.57
2022-09-20T22:41:44.731Z,39.92
2022-09-20T22:44:14.980Z,40.67
2022-09-20T22:46:43.639Z,47.45
2022-09-20T22:49:12.142Z,52.55
2022-09-20T22:51:40.888Z,42.10
2022-09-20T22:54:11.211Z,46.20
2022-09-20T22:56:41.435Z,42.87
2022-09-20T22:59:11.704Z,46.87
2022-09-20T23:01:43.400Z,40.63
2022-09-20T23:04:14.627Z,41.20
2022-09-20T23:06:44.286Z,41.33
2022-09-20T23:09:14.543Z,41.90
2022-09-20T23:11:43.856Z,45.07
2022-09-20T23:14:13.794Z,44.75
2022-09-20T23:16:44.482Z,49.30
2022-09-20T23:19:13.613Z,46.03
2022-09-20T23:21:43.330Z,51.35
2022-09-20T23:24:13.542Z,44.72
2022-09-20T23:26:42.858Z,54.47
2022-09-20T23:29:13.060Z,50.10
2022-09-20T23:31:46.185Z,47.38
2022-09-20T23:34:16.644Z,40.55
2022-09-20T23:36:46.163Z,46.22
2022-09-20T23:39:15.396Z,52.92
2022-09-20T23:41:48.355Z,44.72
2022-09-20T23:44:19.312Z,42.70
2022-09-20T23:46:49.294Z,43.83
2022-09-20T23:49:17.865Z,47.42
2022-09-20T23:51:46.352Z,42.90
2022-09-20T23:54:14.860Z,47.40
2022-09-20T23:56:43.298Z,43.28
2022-09-20T23:59:12.028Z,45.83
